Nearby METAR Reports

 

LIBV - Gioia Del Colle, Italy
Distance from station: SSE 15km
Ultima actualizare: 18/10/2018 19:55
Parțial înorat
Parțial înorat
 Vânt dela NNE
Vântul: NNE 7 km/h
Temperatura: 17°C
Punct de rouă: 16°C
Umiditate: 94%
Barometru: 1015 hPa
Clouds: Parțial înorat
Visibility: 10 km
Cloud details: Parțial înorat 762 m
2018/10/18 17:55 LIBV 181755Z 02004KT 9999 SCT025 17/16 Q1015 RMK SCT VIS MIN 9999 WIND THR32 03005KT WIND THR14 02004KT BLU
LIBD - Bari/Palese Macc, Italy
Distance from station: NNV 26km
Ultima actualizare: 18/10/2018 20:20
Few Clouds
Few Clouds
 Vânt dela VSV
Vântul: VSV 4 km/h
Temperatura: 17°C
Punct de rouă: 15°C
Umiditate: 88%
Barometru: 1015 hPa
Clouds: Few Clouds
Visibility: 10 km
Cloud details: Few Clouds 457 m
2018/10/18 18:20 LIBD 181820Z 25002KT 9999 FEW015 17/15 Q1015
LIBH - Marina Di Ginosa, Italy
Distance from station: S 53km
Ultima actualizare: 18/10/2018 19:55
Senin
Senin
 Vânt dela calm
Vântul: Calm
Temperatura: 18°C
Punct de rouă: 16°C
Umiditate: 88%
Barometru: 1013 hPa
Sumar: Senin
Visibility: greater than 10 km
2018/10/18 17:55 LIBH 181755Z 00000KT CAVOK 18/16 Q1013 RMK SKC QUK / QUL / VIS MAR 20 KM VIS MIN 9999
 
LIBG - Grottaglie(Civ/A, Italy
Distance from station: SE 61km
Ultima actualizare: 18/10/2018 19:50
Few Clouds
Few Clouds
 Vânt dela NNE
Vântul: NNE 7 km/h
Temperatura: 19°C
Punct de rouă: 17°C
Umiditate: 88%
Barometru: 1014 hPa
Clouds: Few Clouds
Visibility: 10 km
Cloud details: Few Clouds 914 m
2018/10/18 17:50 LIBG 181750Z 03004KT 9999 FEW030 19/17 Q1014
LIBR - Brindisi/Casale, Italy
Distance from station: ESE 96km
Ultima actualizare: 18/10/2018 20:20
Senin
Senin
 Vânt dela V
Vântul: V 4 km/h
Temperatura: 19°C
Punct de rouă: 16°C
Umiditate: 83%
Barometru: 1015 hPa
Sumar: Senin
Visibility: greater than 10 km
2018/10/18 18:20 LIBR 181820Z 28002KT CAVOK 19/16 Q1015
LIBA - Amendola (it-Afb, Italy
Distance from station: NV 118km
Ultima actualizare: 18/10/2018 19:55
Senin
Senin
 Vânt dela SSV
Vântul: SSV 4 km/h
Temperatura: 17°C
Punct de rouă: 17°C
Umiditate: 100%
Barometru: 1014 hPa
Sumar: Senin
Visibility: greater than 10 km
2018/10/18 17:55 LIBA 181755Z 20002KT CAVOK 17/17 Q1014 RMK SKC VIS MIN 9999 WIND THR11 29002KT WIND THR29 /////KT BLU
 
LIBF - Foggia/Gino Lisa, Italy
Distance from station: VNV 126km
Ultima actualizare: 18/10/2018 17:50
NOT Current
Few Clouds
Few Clouds
 Vânt dela E
Vântul: E 7 km/h
Temperatura: 21°C
Punct de rouă: 14°C
Umiditate: 64%
Barometru: 1014 hPa
Clouds: Few Clouds
Visibility: 10 km
Cloud details: Few Clouds 1372 m
2018/10/18 15:50 LIBF 181550Z 09004KT 050V110 9999 FEW045 21/14 Q1014
LIBN - Lecce (it-Afb), Italy
Distance from station: SE 132km
Ultima actualizare: 18/10/2018 19:55
Senin
Senin
 Vânt dela VSV
Vântul: VSV 6 km/h
Temperatura: 19°C
Punct de rouă: 17°C
Umiditate: 88%
Barometru: 1014 hPa
Sumar: Senin
Visibility: greater than 10 km
2018/10/18 17:55 LIBN 181755Z 25003KT CAVOK 19/17 Q1014 RMK SKC VIS MIN 9999 WIND THR14 25003KT WIND THR32 24004KT BLU